Las Palmas de Gran Canaria, Spain

7:03 PM WEST en Abril 28, 2017 (GMT +0100)
Tejeda, Lomo de los Santos | | Change Station

Alt 3609 ft 28.00 °N, 15.61 °W | Updated 6 seconds ago

Parcialmente nublado
Parcialmente nublado
56.7 ° F
Sensación térmica 56.7 ° F
N
6.9
Viento Variable Viento desde Oeste
Gusts 6.9 mph

Hoy
Alta -- | Baja -- ° F
--% Posibilidad de precipitaciones
Ayer
Alta -- | Baja -- ° F
Precip. -- pul
Presión 29.92 pul
Visibilidad 4.3 Millas
Nubes Nubes dispersas 1900 ft
Muy nublado 3800 ft
Punto de rocío 56 ° F
Humedad 96%
Precipitaciones 0.29 pul
Espesor de la nieve No disponible.
7:24 AM 8:35 PM
Creciente, 7% visible
METAR GCXO 281730Z 30010KT 260V320 7000 SCT019 BKN038 19/14 Q1013 NOSIG
Presión 29.92 pul
Visibilidad 4.3 Millas
Nubes Nubes dispersas 1900 ft
Muy nublado 3800 ft
Punto de rocío 56 ° F
Humedad 96%
Precipitaciones 0.29 pul
Espesor de la nieve No disponible.
7:24 AM 8:35 PM
Creciente, 7% visible
METAR GCXO 281730Z 30010KT 260V320 7000 SCT019 BKN038 19/14 Q1013 NOSIG

Get Severe Weather Alerts

Thanks for signing up!

Be on the lookout for a verification email in your inbox.

You'll start receiving the daily forecast at 8 AM.

×

10-Day Weather Forecast

×

Almanac

Astronomía

Apr. 28, 2017 Salida Puesta
Hora real
Crepúsculo civil
Crepúsculo náutico
Crepúsculo astronómico
Luna
Horas de luz
Horas de luz
Tomorrow will be .
, % of the Moon is Illuminated

Extremos de hoy

Máximos del país Bajas del país

Community

WunderPhotos

WunderBlog® & News

Nearby

Calidad del aire

  Calidad del aire Índice AQ Contaminante
Not available.

Grosos de nieve

Estación Profundido Altura

Actividad de terremotos

Ciudad Distance Mag. Tiempo y dato
Magnitud mínima muestra es 2,5.

Temperaturas de aguas costeras

Lugar Temperatura

Stations

Estaciones meteorológicas cercanas

Ubicación de la estación Temp. Vientos helados Punto de rocío Humedad Viento Precip. Alt Actualizado Tipo